Time;durP1;ratioP1;P1;durP2;ratioP2;P2;SDS_P1;SDS_P2;PMS_P1;PMS_P2;Temp;Humidity;BMP_temperature;BMP_pressure;BME280_temperature;BME280_humidity;BME280_pressure;Samples;Min_cycle;Max_cycle;Signal;HPM_P1;HPM_P2
2024/04/04 00:01:51;;;;;;;1.70;1.60;;;;;;;9.77;100.00;100256.47;5007520;28;20212;-72
2024/04/04 00:04:18;;;;;;;2.07;1.87;;;;;;;9.78;100.00;100247.44;5007287;28;20193;-72
2024/04/04 00:06:43;;;;;;;3.00;1.70;;;;;;;9.80;100.00;100247.13;4996077;28;20225;-72
2024/04/04 00:09:10;;;;;;;4.33;2.03;;;;;;;9.80;100.00;100247.91;5006198;28;20697;-72
2024/04/04 00:11:35;;;;;;;1.50;1.40;;;;;;;9.82;100.00;100247.56;4990076;28;20213;-71
2024/04/04 00:14:02;;;;;;;2.33;2.00;;;;;;;9.81;100.00;100240.75;5009758;28;20200;-72
2024/04/04 00:16:28;;;;;;;1.60;1.50;;;;;;;9.80;100.00;100244.50;5005274;28;20227;-72
2024/04/04 00:18:55;;;;;;;1.47;1.37;;;;;;;9.77;100.00;100242.50;5011861;28;20623;-72
2024/04/04 00:21:20;;;;;;;1.50;1.40;;;;;;;9.76;100.00;100239.09;5009737;28;20200;-72
2024/04/04 00:23:46;;;;;;;5.80;1.70;;;;;;;9.75;100.00;100240.22;5007951;28;20215;-71
2024/04/04 00:26:12;;;;;;;1.50;1.40;;;;;;;9.73;100.00;100245.03;5009736;28;20223;-72
2024/04/04 00:28:38;;;;;;;3.40;1.63;;;;;;;9.72;100.00;100253.25;5009432;28;20209;-72
2024/04/04 00:31:04;;;;;;;1.60;1.40;;;;;;;9.70;100.00;100240.44;5010397;28;20689;-72
2024/04/04 00:33:35;;;;;;;1.67;1.57;;;;;;;9.71;100.00;100241.19;5007582;28;20204;-72
2024/04/04 00:36:00;;;;;;;2.97;1.93;;;;;;;9.70;100.00;100235.16;5005750;28;20561;-72
2024/04/04 00:38:28;;;;;;;1.27;1.17;;;;;;;9.72;100.00;100237.44;5007165;28;20205;-72
2024/04/04 00:40:53;;;;;;;1.40;1.30;;;;;;;9.71;100.00;100234.06;5008877;28;20200;-72
2024/04/04 00:43:20;;;;;;;1.50;1.40;;;;;;;9.73;100.00;100236.38;5006287;28;20204;-72
2024/04/04 00:45:46;;;;;;;1.43;1.33;;;;;;;9.73;100.00;100241.63;5006987;28;20303;-72
2024/04/04 00:48:12;;;;;;;1.80;1.40;;;;;;;9.74;100.00;100240.53;5007087;28;20240;-72
2024/04/04 00:50:41;;;;;;;2.13;1.43;;;;;;;9.75;100.00;100239.44;5005038;28;20243;-72
2024/04/04 00:53:11;;;;;;;1.50;1.40;;;;;;;9.75;100.00;100245.50;5008051;28;20232;-72
2024/04/04 00:55:37;;;;;;;3.37;1.70;;;;;;;9.77;100.00;100242.50;5008362;28;20207;-72
2024/04/04 00:58:04;;;;;;;3.70;1.60;;;;;;;9.77;100.00;100235.38;5004239;28;20206;-72
2024/04/04 01:00:29;;;;;;;1.60;1.50;;;;;;;9.79;100.00;100237.69;4991352;28;20278;-72
2024/04/04 01:02:57;;;;;;;1.50;1.40;;;;;;;9.81;100.00;100235.47;5005333;28;20193;-72
2024/04/04 01:05:22;;;;;;;1.73;1.63;;;;;;;9.81;100.00;100238.13;5007261;28;20202;-71
2024/04/04 01:07:50;;;;;;;2.70;1.73;;;;;;;9.83;100.00;100241.22;5005201;28;20283;-72
2024/04/04 01:10:19;;;;;;;1.83;1.30;;;;;;;9.84;100.00;100243.50;5001227;28;20207;-72
2024/04/04 01:12:45;;;;;;;1.50;1.40;;;;;;;9.86;100.00;100254.50;5006852;28;20211;-72
2024/04/04 01:15:10;;;;;;;3.40;1.33;;;;;;;9.87;100.00;100255.25;5006313;28;20744;-72
2024/04/04 01:17:37;;;;;;;1.87;1.33;;;;;;;9.87;100.00;100250.78;5010674;28;20225;-71
2024/04/04 01:20:03;;;;;;;2.13;1.57;;;;;;;9.88;100.00;100251.56;4990622;28;20201;-72
2024/04/04 01:22:29;;;;;;;1.50;1.40;;;;;;;9.89;100.00;100243.28;5009259;28;20200;-72
2024/04/04 01:24:56;;;;;;;1.70;1.40;;;;;;;9.91;100.00;100250.88;5007047;28;20208;-72
2024/04/04 01:27:22;;;;;;;1.60;1.50;;;;;;;9.91;100.00;100251.66;5005810;28;20216;-71
2024/04/04 01:29:48;;;;;;;1.47;1.37;;;;;;;9.91;100.00;100248.25;4992931;28;20225;-72
2024/04/04 01:32:14;;;;;;;1.43;1.13;;;;;;;9.93;100.00;100249.44;5001568;28;20285;-72
2024/04/04 01:34:40;;;;;;;2.63;1.40;;;;;;;9.94;100.00;100250.22;5008384;28;20206;-72
2024/04/04 01:37:06;;;;;;;1.50;1.33;;;;;;;9.95;100.00;100243.84;5008548;28;20235;-72
2024/04/04 01:39:31;;;;;;;2.70;1.30;;;;;;;9.95;100.00;100243.84;5009780;28;20215;-72
2024/04/04 01:41:59;;;;;;;1.53;1.37;;;;;;;9.95;100.00;100241.22;4992615;28;20197;-72
2024/04/04 01:44:24;;;;;;;4.60;1.50;;;;;;;9.96;100.00;100245.38;4989551;28;20204;-72
2024/04/04 01:46:51;;;;;;;2.60;1.63;;;;;;;9.96;100.00;100240.13;5007437;28;20244;-72
2024/04/04 01:49:16;;;;;;;2.17;1.20;;;;;;;9.96;100.00;100240.91;5003832;28;20293;-72
2024/04/04 01:51:43;;;;;;;1.63;1.10;;;;;;;9.97;100.00;100244.28;5008135;28;20280;-72
2024/04/04 01:54:09;;;;;;;1.50;1.30;;;;;;;9.97;100.00;100233.72;5002929;28;20209;-72
2024/04/04 01:56:35;;;;;;;1.23;1.13;;;;;;;9.97;100.00;100239.78;5005531;28;20213;-72
2024/04/04 01:59:02;;;;;;;2.60;1.53;;;;;;;9.97;100.00;100241.66;5009880;28;20248;-72
2024/04/04 02:01:29;;;;;;;1.63;1.53;;;;;;;9.95;100.00;100239.34;5005875;28;20288;-72
2024/04/04 02:03:54;;;;;;;1.80;1.30;;;;;;;9.95;100.00;100249.13;5006994;28;20197;-72
2024/04/04 02:06:21;;;;;;;2.63;1.20;;;;;;;9.94;100.00;100243.06;5007724;28;20768;-72
2024/04/04 02:08:46;;;;;;;1.40;1.30;;;;;;;9.94;100.00;100240.44;5007601;28;20300;-72
2024/04/04 02:11:12;;;;;;;1.40;1.30;;;;;;;9.96;100.00;100245.38;5006654;28;20209;-72
2024/04/04 02:13:38;;;;;;;1.33;1.23;;;;;;;9.98;100.00;100243.19;5008858;28;20205;-72
2024/04/04 02:16:08;;;;;;;1.17;1.07;;;;;;;9.99;100.00;100248.13;4988360;28;20229;-72
2024/04/04 02:18:33;;;;;;;1.67;1.40;;;;;;;9.99;100.00;100236.84;4987673;28;20673;-72
2024/04/04 02:21:00;;;;;;;1.17;1.10;;;;;;;10.00;100.00;100241.75;5008259;28;20204;-72
2024/04/04 02:23:25;;;;;;;1.20;1.10;;;;;;;10.00;100.00;100241.75;5004627;28;20234;-72
2024/04/04 02:25:52;;;;;;;1.13;1.00;;;;;;;10.00;100.00;100244.38;5008118;28;20258;-72
2024/04/04 02:28:17;;;;;;;1.37;1.27;;;;;;;10.00;100.00;100241.00;4988756;28;20592;-72
2024/04/04 02:30:43;;;;;;;0.90;0.90;;;;;;;10.02;100.00;100239.56;4990718;28;20215;-72
2024/04/04 02:33:10;;;;;;;1.63;1.40;;;;;;;10.02;100.00;100244.84;5006174;28;20202;-72
2024/04/04 02:35:36;;;;;;;1.43;1.17;;;;;;;10.03;100.00;100242.97;5007106;28;20218;-72
2024/04/04 02:38:02;;;;;;;1.20;1.10;;;;;;;10.05;100.00;100246.09;5007921;28;20226;-72
2024/04/04 02:40:29;;;;;;;1.77;1.10;;;;;;;10.05;100.00;100246.09;5004386;28;20221;-71
2024/04/04 02:42:54;;;;;;;3.43;1.30;;;;;;;10.06;100.00;100247.63;5008057;28;20281;-72
2024/04/04 02:45:22;;;;;;;3.80;1.20;;;;;;;10.07;100.00;100254.44;4989216;28;20297;-72
2024/04/04 02:47:47;;;;;;;1.10;1.00;;;;;;;10.07;100.00;100254.44;5007702;28;20212;-72
2024/04/04 02:50:15;;;;;;;2.17;1.20;;;;;;;10.07;100.00;100257.06;5005751;28;20548;-71
2024/04/04 02:52:41;;;;;;;1.30;1.20;;;;;;;10.09;100.00;100263.56;5004288;28;20208;-71
2024/04/04 02:55:07;;;;;;;1.40;1.30;;;;;;;10.08;100.00;100254.13;5001927;28;20564;-72
2024/04/04 02:57:32;;;;;;;1.30;1.20;;;;;;;10.11;100.00;100245.56;5005108;28;20319;-72
2024/04/04 02:59:59;;;;;;;1.33;1.23;;;;;;;10.11;100.00;100260.59;5003478;28;20272;-72
2024/04/04 03:02:25;;;;;;;1.57;1.47;;;;;;;10.12;100.00;100264.78;4987575;28;20217;-72
2024/04/04 03:04:51;;;;;;;1.53;1.17;;;;;;;10.13;100.00;100253.91;5001089;28;20201;-72
2024/04/04 03:07:18;;;;;;;3.83;1.30;;;;;;;10.13;100.00;100258.38;5005849;28;20591;-72
2024/04/04 03:09:44;;;;;;;2.63;1.27;;;;;;;10.14;100.00;100252.78;4981205;28;20215;-72
2024/04/04 03:12:09;;;;;;;2.00;1.40;;;;;;;10.15;100.00;100264.13;5007120;28;20202;-72
2024/04/04 03:14:36;;;;;;;2.17;1.30;;;;;;;10.15;100.00;100267.50;5003370;28;20194;-72
2024/04/04 03:17:01;;;;;;;1.30;1.20;;;;;;;10.16;100.00;100258.53;5004399;28;20564;-71
2024/04/04 03:19:28;;;;;;;6.10;3.60;;;;;;;10.14;100.00;100260.69;5009912;28;20205;-72
2024/04/04 03:21:56;;;;;;;1.67;1.50;;;;;;;10.15;100.00;100258.84;4998713;28;20227;-72
2024/04/04 03:24:26;;;;;;;1.33;1.23;;;;;;;10.16;100.00;100268.28;5002060;28;20277;-72
2024/04/04 03:26:52;;;;;;;1.40;1.30;;;;;;;10.16;100.00;100260.38;5007570;28;20256;-72
2024/04/04 03:29:23;;;;;;;1.63;1.50;;;;;;;10.16;100.00;100252.47;5004108;28;20782;-72
2024/04/04 03:31:49;;;;;;;2.33;1.57;;;;;;;10.16;100.00;100250.59;5003022;28;20199;-72
2024/04/04 03:34:15;;;;;;;1.70;1.50;;;;;;;10.16;100.00;100257.75;5001986;28;20203;-72
2024/04/04 03:36:41;;;;;;;2.50;1.60;;;;;;;10.14;100.00;100260.69;5006490;28;20229;-72
2024/04/04 03:39:07;;;;;;;2.53;1.60;;;;;;;10.13;100.00;100259.16;5006373;28;20186;-72
2024/04/04 03:41:36;;;;;;;1.57;1.47;;;;;;;10.12;100.00;100255.00;5002025;28;20544;-72
2024/04/04 03:44:02;;;;;;;1.90;1.80;;;;;;;10.11;100.00;100261.38;5004122;28;20208;-72
2024/04/04 03:46:27;;;;;;;2.20;1.53;;;;;;;10.10;100.00;100248.50;5007264;28;20225;-72
2024/04/04 03:48:54;;;;;;;3.53;1.53;;;;;;;10.10;100.00;100259.06;5007546;28;20680;-72
2024/04/04 03:51:19;;;;;;;5.40;1.60;;;;;;;10.05;100.00;100259.28;4991514;28;20571;-73
2024/04/04 03:53:46;;;;;;;1.63;1.53;;;;;;;10.03;100.00;100258.78;4986538;28;20204;-72
2024/04/04 03:56:11;;;;;;;1.80;1.70;;;;;;;10.00;100.00;100257.56;5005445;28;20220;-73
2024/04/04 03:58:39;;;;;;;2.27;1.73;;;;;;;9.99;100.00;100257.94;5004426;28;20285;-73
2024/04/04 04:01:05;;;;;;;2.43;1.70;;;;;;;9.98;100.00;100259.00;5004540;28;20216;-73
2024/04/04 04:03:31;;;;;;;2.27;2.07;;;;;;;9.97;100.00;100247.72;5000959;28;20753;-73
2024/04/04 04:05:59;;;;;;;3.33;2.30;;;;;;;9.93;100.00;100243.44;5005573;28;20729;-73
2024/04/04 04:08:26;;;;;;;3.07;2.00;;;;;;;9.89;100.00;100251.19;5002293;28;20229;-73
2024/04/04 04:10:51;;;;;;;3.77;2.40;;;;;;;9.86;100.00;100256.38;5006714;28;20212;-73
2024/04/04 04:13:18;;;;;;;3.53;2.30;;;;;;;9.82;100.00;100258.91;5006514;28;20294;-73
2024/04/04 04:15:53;;;;;;;2.23;2.03;;;;;;;9.77;100.00;100250.41;5005302;28;20667;-73
2024/04/04 04:18:20;;;;;;;4.00;2.07;;;;;;;9.76;100.00;100256.78;5000792;28;20204;-73
2024/04/04 04:23:30;;;;;;;2.50;2.30;;;;;;;9.73;100.00;100263.47;5010040;28;20665;-73
2024/04/04 04:25:56;;;;;;;2.83;2.27;;;;;;;9.73;100.00;100263.47;5010259;28;20232;-73
2024/04/04 04:28:22;;;;;;;2.70;2.37;;;;;;;9.75;100.00;100268.44;5009215;28;20212;-73
2024/04/04 04:30:51;;;;;;;2.73;2.40;;;;;;;9.75;100.00;100266.59;5008604;28;20587;-73
2024/04/04 04:33:16;;;;;;;2.47;2.27;;;;;;;9.76;100.00;100264.69;4993553;28;20220;-73
2024/04/04 04:35:43;;;;;;;4.60;2.60;;;;;;;9.78;100.00;100271.19;5007009;28;20205;-72
2024/04/04 04:38:10;;;;;;;2.83;2.63;;;;;;;9.81;100.00;100281.09;5001550;28;20250;-73
2024/04/04 04:40:40;;;;;;;3.03;2.60;;;;;;;9.84;100.00;100290.22;5006437;28;20725;-73
2024/04/04 04:43:09;;;;;;;2.60;2.40;;;;;;;9.86;100.00;100290.66;5007872;28;20284;-73
2024/04/04 04:45:35;;;;;;;4.07;2.60;;;;;;;9.86;100.00;100299.34;5005959;28;20317;-73
2024/04/04 04:48:03;;;;;;;4.20;2.73;;;;;;;9.90;100.00;100302.09;5009317;28;20207;-73
2024/04/04 04:50:30;;;;;;;3.20;2.90;;;;;;;9.92;100.00;100311.22;5005077;28;20643;-73
2024/04/04 04:52:55;;;;;;;3.10;2.77;;;;;;;9.94;100.00;100310.91;5007662;28;20201;-73
2024/04/04 04:55:21;;;;;;;2.90;2.60;;;;;;;9.96;100.00;100298.13;5012349;28;20197;-73
2024/04/04 04:57:48;;;;;;;3.10;2.80;;;;;;;9.99;100.00;100300.88;5005462;28;20256;-73
2024/04/04 05:00:15;;;;;;;4.63;3.13;;;;;;;10.02;100.00;100296.81;5010392;28;20197;-73
2024/04/04 05:02:44;;;;;;;4.10;3.00;;;;;;;10.04;100.00;100302.59;4989899;28;20213;-73
2024/04/04 05:05:16;;;;;;;3.80;3.50;;;;;;;10.05;100.00;100294.31;5007539;28;20676;-73
2024/04/04 05:07:42;;;;;;;3.37;3.07;;;;;;;10.07;100.00;100304.56;5007775;28;20780;-73
2024/04/04 05:10:10;;;;;;;3.70;3.40;;;;;;;10.06;100.00;100313.56;5008527;28;20226;-73
2024/04/04 05:12:36;;;;;;;5.07;3.37;;;;;;;10.06;100.00;100314.34;5001551;28;20208;-73
2024/04/04 05:15:02;;;;;;;4.10;3.37;;;;;;;10.06;100.00;100306.44;5004203;28;20557;-73
2024/04/04 05:17:28;;;;;;;4.00;3.17;;;;;;;10.06;100.00;100314.34;5008431;28;20228;-73
2024/04/04 05:19:54;;;;;;;4.60;3.43;;;;;;;10.05;100.00;100310.16;5005594;28;20203;-73
2024/04/04 05:22:21;;;;;;;3.53;2.60;;;;;;;10.05;100.00;100318.06;5007495;28;20205;-73
2024/04/04 05:24:47;;;;;;;4.10;3.23;;;;;;;10.05;100.00;100323.34;5006766;28;20284;-73
2024/04/04 05:27:13;;;;;;;4.47;3.10;;;;;;;10.05;100.00;100330.50;5010629;28;20214;-73
2024/04/04 05:29:40;;;;;;;3.43;3.07;;;;;;;10.06;100.00;100322.28;5009450;28;20217;-73
2024/04/04 05:32:05;;;;;;;3.40;3.10;;;;;;;10.08;100.00;100324.56;5006780;28;20209;-73
2024/04/04 05:34:32;;;;;;;3.67;3.37;;;;;;;10.11;100.00;100327.34;5007267;28;20648;-73
2024/04/04 05:36:58;;;;;;;4.10;3.50;;;;;;;10.14;100.00;100329.31;5007593;28;20224;-73
2024/04/04 05:39:25;;;;;;;3.87;3.33;;;;;;;10.19;100.00;100330.97;5007471;28;20197;-73
2024/04/04 05:41:52;;;;;;;2.97;2.73;;;;;;;10.20;100.00;100329.88;5007682;28;20227;-73
2024/04/04 05:44:18;;;;;;;3.83;2.87;;;;;;;10.22;100.00;100333.72;5008836;28;20731;-73
2024/04/04 05:46:44;;;;;;;3.77;3.13;;;;;;;10.25;100.00;100334.94;5007470;28;20221;-73
2024/04/04 05:49:10;;;;;;;3.13;2.77;;;;;;;10.27;100.00;100333.50;5004135;28;20707;-73
2024/04/04 05:51:39;;;;;;;7.47;3.53;;;;;;;10.30;100.00;100332.09;4988848;28;20201;-73
2024/04/04 05:54:05;;;;;;;4.23;3.83;;;;;;;10.33;100.00;100331.41;5009854;28;20248;-73
2024/04/04 05:56:32;;;;;;;6.23;3.40;;;;;;;10.38;100.00;100333.81;5005783;28;20728;-73
2024/04/04 05:58:58;;;;;;;8.17;3.97;;;;;;;10.41;100.00;100331.28;5010262;28;20241;-73
2024/04/04 06:01:24;;;;;;;3.90;3.47;;;;;;;10.47;100.00;100331.84;5005497;28;20382;-73
2024/04/04 06:03:50;;;;;;;3.80;3.30;;;;;;;10.51;100.00;100322.94;5005722;28;20214;-73
2024/04/04 06:06:16;;;;;;;4.23;3.37;;;;;;;10.55;100.00;100323.81;5009218;28;20218;-73
2024/04/04 06:08:42;;;;;;;4.03;3.63;;;;;;;10.60;100.00;100328.88;4991260;28;20214;-73
2024/04/04 06:11:07;;;;;;;4.30;3.07;;;;;;;10.65;100.00;100323.38;5006736;28;20231;-73
2024/04/04 06:13:35;;;;;;;6.20;3.60;;;;;;;10.69;100.00;100324.25;4986903;28;20204;-73
2024/04/04 06:16:02;;;;;;;3.50;3.20;;;;;;;10.76;100.00;100339.56;4999929;28;20218;-73
2024/04/04 06:18:28;;;;;;;5.17;3.20;;;;;;;10.81;100.00;100334.06;5006670;28;20211;-73
2024/04/04 06:20:54;;;;;;;3.40;3.10;;;;;;;10.85;100.00;100335.69;4989564;28;20199;-73
2024/04/04 06:23:20;;;;;;;3.67;3.00;;;;;;;10.90;100.00;100339.97;5004615;28;20203;-73
2024/04/04 06:25:45;;;;;;;4.57;3.10;;;;;;;10.93;100.00;100340.06;5005393;28;20200;-73
2024/04/04 06:28:12;;;;;;;3.57;3.00;;;;;;;11.02;100.00;100340.72;5001038;28;20648;-73
2024/04/04 06:30:39;;;;;;;3.47;2.90;;;;;;;11.10;100.00;100336.41;4989435;28;20216;-73
2024/04/04 06:33:07;;;;;;;5.73;2.77;;;;;;;11.15;100.00;100336.94;5004242;28;20201;-72
2024/04/04 06:35:33;;;;;;;3.60;2.80;;;;;;;11.20;100.00;100341.22;5005059;28;20202;-73
2024/04/04 06:37:59;;;;;;;3.53;2.90;;;;;;;11.23;100.00;100337.94;5002789;28;20203;-73
2024/04/04 06:40:26;;;;;;;2.77;2.57;;;;;;;11.29;100.00;100352.44;5006689;28;20208;-73
2024/04/04 06:42:52;;;;;;;2.53;2.33;;;;;;;11.31;100.00;100344.94;5005199;28;20200;-73
2024/04/04 06:45:18;;;;;;;2.77;2.10;;;;;;;11.34;100.00;100339.00;5006149;28;20206;-73
2024/04/04 06:47:57;;;;;;;2.60;2.33;;;;;;;11.38;100.00;100347.78;4985195;28;20277;-74
2024/04/04 06:50:25;;;;;;;3.20;2.10;;;;;;;11.41;100.00;100357.69;5008523;28;20213;-73
2024/04/04 06:52:51;;;;;;;4.43;2.70;;;;;;;11.43;100.00;100352.84;4996631;28;20224;-73
2024/04/04 06:55:17;;;;;;;6.43;2.70;;;;;;;11.45;100.00;100354.03;5006355;28;20206;-73
2024/04/04 06:57:43;;;;;;;4.33;2.60;;;;;;;11.49;100.00;100354.91;5009169;28;20227;-73
2024/04/04 07:00:11;;;;;;;4.30;2.20;;;;;;;11.53;100.00;100347.84;5002543;28;20200;-73
2024/04/04 07:02:38;;;;;;;2.77;2.47;;;;;;;11.58;100.00;100344.16;5003236;28;20243;-73
2024/04/04 07:05:05;;;;;;;3.37;2.57;;;;;;;11.61;100.00;100352.25;5004187;28;20212;-73
2024/04/04 07:07:31;;;;;;;6.43;2.77;;;;;;;11.64;100.00;100343.63;5003300;28;20227;-73
2024/04/04 07:09:57;;;;;;;3.03;2.80;;;;;;;11.67;100.00;100342.97;5006396;28;20578;-73
2024/04/04 07:12:23;;;;;;;2.77;2.27;;;;;;;11.73;100.00;100343.47;5003666;28;20198;-73
2024/04/04 07:14:49;;;;;;;3.33;2.20;;;;;;;11.80;100.00;100352.38;5005687;28;20196;-73
2024/04/04 07:17:16;;;;;;;3.63;2.10;;;;;;;11.87;100.00;100351.78;5006829;28;20223;-73
2024/04/04 07:19:41;;;;;;;3.17;2.63;;;;;;;11.91;100.00;100348.13;5004667;28;20777;-73
2024/04/04 07:22:09;;;;;;;3.50;2.20;;;;;;;11.96;100.00;100355.06;5005838;28;20196;-73
2024/04/04 07:24:35;;;;;;;2.40;2.20;;;;;;;12.06;100.00;100359.84;5004296;28;20208;-73
2024/04/04 07:27:01;;;;;;;2.93;2.27;;;;;;;12.14;100.00;100364.19;5004461;28;20796;-73
2024/04/04 07:29:26;;;;;;;3.10;2.13;;;;;;;12.22;100.00;100363.28;5004738;28;20216;-73
2024/04/04 07:31:53;;;;;;;3.23;2.40;;;;;;;12.30;100.00;100367.63;4998955;28;20223;-73
2024/04/04 07:34:19;;;;;;;3.77;2.57;;;;;;;12.38;100.00;100364.78;4987546;28;20208;-74
2024/04/04 07:36:46;;;;;;;2.33;1.90;;;;;;;12.43;100.00;100367.19;5004575;28;20223;-73
2024/04/04 07:39:13;;;;;;;3.90;2.03;;;;;;;12.46;100.00;100374.47;5000575;28;20208;-73
2024/04/04 07:41:40;;;;;;;4.40;2.07;;;;;;;12.46;100.00;100378.97;5006359;28;20196;-73
2024/04/04 07:44:05;;;;;;;4.07;1.80;;;;;;;12.44;100.00;100382.00;5004428;28;21095;-73
2024/04/04 07:46:31;;;;;;;2.40;2.00;;;;;;;12.44;100.00;100384.63;5002945;28;20859;-73
2024/04/04 07:48:58;;;;;;;1.73;1.63;;;;;;;12.50;100.00;100382.47;4999604;28;20388;-73
2024/04/04 07:51:26;;;;;;;3.23;2.00;;;;;;;12.57;100.00;100374.72;4998637;28;20216;-73
2024/04/04 07:53:52;;;;;;;4.53;2.00;;;;;;;12.67;100.00;100376.81;4986144;28;20208;-73
2024/04/04 07:56:20;;;;;;;1.60;1.50;;;;;;;12.77;100.00;100373.66;5000795;28;20244;-73
2024/04/04 07:58:47;;;;;;;3.60;2.40;;;;;;;12.84;100.00;100379.88;5002949;28;20207;-73
2024/04/04 08:01:14;;;;;;;1.40;1.20;;;;;;;12.91;100.00;100385.38;5004483;28;20223;-73
2024/04/04 08:03:40;;;;;;;2.47;1.20;;;;;;;12.90;100.00;100388.34;5005184;28;20275;-73
2024/04/04 08:06:06;;;;;;;2.50;1.40;;;;;;;12.93;100.00;100387.66;5004523;28;20216;-73
2024/04/04 08:08:33;;;;;;;4.40;1.43;;;;;;;12.89;100.00;100392.88;5007226;28;20210;-73
2024/04/04 08:10:59;;;;;;;2.23;1.03;;;;;;;12.86;100.00;100393.56;5004721;28;20245;-73
2024/04/04 08:13:26;;;;;;;2.37;1.10;;;;;;;12.84;100.00;100390.47;5009005;28;20200;-73
2024/04/04 08:15:53;;;;;;;2.80;1.53;;;;;;;12.79;100.00;100380.16;5005815;28;20715;-73
2024/04/04 08:18:19;;;;;;;5.13;1.30;;;;;;;12.77;100.00;100374.44;5008069;28;20622;-74
2024/04/04 08:20:45;;;;;;;3.20;1.40;;;;;;;12.80;100.00;100383.56;5008320;28;20464;-73
2024/04/04 08:23:11;;;;;;;2.67;1.10;;;;;;;12.83;100.00;100386.31;5009703;28;20208;-73
2024/04/04 08:25:37;;;;;;;3.77;1.33;;;;;;;12.84;100.00;100376.47;5004961;28;20750;-73
2024/04/04 08:28:04;;;;;;;1.50;0.90;;;;;;;12.86;100.00;100375.03;5007811;28;20193;-73
2024/04/04 08:30:32;;;;;;;2.30;1.73;;;;;;;12.90;100.00;100373.22;5006586;28;20202;-73
2024/04/04 08:32:57;;;;;;;2.57;1.97;;;;;;;12.93;100.00;100380.47;5004241;28;20209;-73
2024/04/04 08:35:24;;;;;;;2.20;0.97;;;;;;;13.00;100.00;100374.59;5005438;28;20196;-73
2024/04/04 08:37:49;;;;;;;1.90;0.90;;;;;;;13.08;100.00;100373.63;5003827;28;20377;-73
2024/04/04 08:40:16;;;;;;;1.13;0.83;;;;;;;13.13;100.00;100371.47;5003068;28;20216;-73
2024/04/04 08:42:42;;;;;;;0.80;0.60;;;;;;;13.19;100.00;100377.28;5005521;28;20280;-73
2024/04/04 08:45:12;;;;;;;1.87;0.80;;;;;;;13.23;100.00;100376.25;5009696;28;20188;-73
2024/04/04 08:47:39;;;;;;;1.80;0.70;;;;;;;13.30;100.00;100381.69;5006677;28;20225;-73
2024/04/04 08:50:12;;;;;;;1.50;0.90;;;;;;;13.39;100.00;100390.22;5008134;28;20310;-73
2024/04/04 08:52:38;;;;;;;1.53;0.67;;;;;;;13.46;100.00;100378.97;5002648;28;20196;-73
2024/04/04 08:55:05;;;;;;;2.03;0.83;;;;;;;13.51;100.00;100387.41;5005122;28;20201;-73
2024/04/04 08:57:34;;;;;;;2.93;1.10;;;;;;;13.58;100.00;100387.56;5000283;28;20213;-73
2024/04/04 09:00:03;;;;;;;1.67;0.90;;;;;;;13.61;100.00;100378.16;5002452;28;20596;-73
2024/04/04 09:02:29;;;;;;;1.27;0.60;;;;;;;13.65;100.00;100373.66;5005034;28;20207;-73
2024/04/04 09:05:06;;;;;;;1.17;0.83;;;;;;;13.72;100.00;100366.59;5006093;28;20800;-74
2024/04/04 09:07:34;;;;;;;1.40;0.77;;;;;;;13.76;100.00;100372.00;5000633;28;20873;-73
2024/04/04 09:10:00;;;;;;;3.83;0.80;;;;;;;13.82;100.00;100367.94;5002848;28;20252;-73
2024/04/04 09:12:26;;;;;;;1.53;0.60;;;;;;;13.87;100.00;100359.69;5006555;28;20223;-73
2024/04/04 09:14:58;;;;;;;0.97;0.93;;;;;;;13.92;100.00;100348.78;5005132;28;20195;-73
2024/04/04 09:17:24;;;;;;;2.07;0.60;;;;;;;14.02;100.00;100350.84;5005862;28;20271;-73
2024/04/04 09:19:54;;;;;;;0.57;0.50;;;;;;;14.11;100.00;100352.16;5009060;28;20862;-73
2024/04/04 09:22:21;;;;;;;1.33;0.70;;;;;;;14.19;100.00;100353.03;5002585;28;20192;-73
2024/04/04 09:24:48;;;;;;;4.07;0.80;;;;;;;14.29;100.00;100339.19;5000859;28;20278;-73
2024/04/04 09:27:17;;;;;;;1.13;0.70;;;;;;;14.36;100.00;100352.56;5008715;28;20231;-73
2024/04/04 09:29:45;;;;;;;1.10;0.80;;;;;;;14.40;100.00;100342.78;5005168;28;20214;-74
2024/04/04 09:32:12;;;;;;;1.80;0.70;;;;;;;14.48;100.00;100339.09;5007193;28;20221;-73
2024/04/04 09:34:39;;;;;;;1.63;0.47;;;;;;;14.53;100.00;100352.84;5006155;28;20200;-73
2024/04/04 09:37:05;;;;;;;2.30;0.77;;;;;;;14.58;100.00;100347.25;5002535;28;20303;-73
2024/04/04 09:39:33;;;;;;;1.33;0.60;;;;;;;14.64;100.00;100351.13;5004625;28;20207;-73
2024/04/04 09:41:59;;;;;;;2.93;0.80;;;;;;;14.68;100.00;100348.50;5005046;28;20208;-73
2024/04/04 09:44:25;;;;;;;1.30;0.63;;;;;;;14.72;100.00;100344.03;4989352;28;20193;-73
2024/04/04 09:46:52;;;;;;;3.10;0.70;;;;;;;14.74;100.00;100342.53;5005762;28;20220;-73
2024/04/04 09:49:22;;;;;;;2.83;0.60;;;;;;;14.82;100.00;100341.53;5001428;28;20261;-74
2024/04/04 09:51:50;;;;;;;1.37;0.40;;;;;;;14.93;100.00;100339.00;5001732;28;20212;-74
2024/04/04 09:54:17;;;;;;;3.03;0.77;;;;;;;15.08;100.00;100335.41;5002478;28;20208;-73
2024/04/04 09:56:45;;;;;;;0.97;0.80;;;;;;;15.34;100.00;100340.69;5006322;28;20231;-74
2024/04/04 09:59:13;;;;;;;0.80;0.50;;;;;;;15.57;100.00;100347.44;5004195;28;20205;-73
2024/04/04 10:01:39;;;;;;;1.03;0.57;;;;;;;15.82;100.00;100359.09;5003399;28;20258;-73
2024/04/04 10:04:06;;;;;;;0.50;0.50;;;;;;;16.00;100.00;100360.03;5004820;28;20807;-74
2024/04/04 10:06:36;;;;;;;1.57;0.80;;;;;;;16.17;100.00;100356.78;5004923;28;20220;-74
2024/04/04 10:09:14;;;;;;;1.53;0.60;;;;;;;16.31;100.00;100356.13;5003766;28;20204;-74
2024/04/04 10:11:40;;;;;;;1.43;0.40;;;;;;;16.43;100.00;100345.22;5003629;28;20285;-73
2024/04/04 10:14:13;;;;;;;2.77;0.63;;;;;;;16.52;100.00;100351.00;5005425;28;20641;-74
2024/04/04 10:16:44;;;;;;;1.27;0.60;;;;;;;16.54;98.98;100349.50;5004650;28;20221;-73
2024/04/04 10:19:11;;;;;;;2.63;0.93;;;;;;;16.56;97.70;100347.22;5003116;28;20199;-74
2024/04/04 10:21:37;;;;;;;1.93;0.57;;;;;;;16.60;89.53;100350.69;5004175;28;20188;-74
2024/04/04 10:24:04;;;;;;;1.10;0.60;;;;;;;16.65;96.38;100342.34;4984599;28;20220;-73
2024/04/04 10:26:30;;;;;;;0.87;0.60;;;;;;;16.72;97.41;100334.38;5003003;28;20815;-74
2024/04/04 10:28:56;;;;;;;2.10;0.60;;;;;;;16.78;86.92;100343.56;4999369;28;20201;-73
2024/04/04 10:31:23;;;;;;;1.97;0.63;;;;;;;16.85;86.48;100330.28;4999508;28;20231;-74
2024/04/04 10:33:50;;;;;;;1.07;0.57;;;;;;;16.86;83.30;100337.13;5003953;28;20664;-73
2024/04/04 10:36:15;;;;;;;2.00;0.53;;;;;;;16.93;87.46;100329.16;5000359;28;20592;-74
2024/04/04 10:38:41;;;;;;;2.43;0.70;;;;;;;17.01;88.74;100329.97;4984229;28;20216;-73
2024/04/04 10:41:08;;;;;;;1.63;0.70;;;;;;;17.10;98.96;100330.38;5002227;28;20567;-73
2024/04/04 10:43:40;;;;;;;1.50;0.63;;;;;;;17.15;88.84;100322.81;5000163;28;20208;-73
2024/04/04 10:46:05;;;;;;;0.97;0.60;;;;;;;17.19;86.07;100318.22;5001844;28;20284;-74
2024/04/04 10:48:33;;;;;;;1.03;0.60;;;;;;;17.26;98.99;100312.94;5003589;28;20213;-74
2024/04/04 10:50:58;;;;;;;2.63;0.50;;;;;;;17.30;100.00;100315.59;4999575;28;20215;-74
2024/04/04 10:53:25;;;;;;;0.70;0.50;;;;;;;17.32;91.60;100307.97;5004367;28;20201;-73
2024/04/04 10:55:50;;;;;;;1.70;0.63;;;;;;;17.40;100.00;100315.69;4989525;28;20231;-73
2024/04/04 10:58:17;;;;;;;2.37;0.73;;;;;;;17.46;90.57;100316.84;5003453;28;20767;-73
2024/04/04 11:00:42;;;;;;;2.23;0.60;;;;;;;17.47;85.52;100320.25;5002946;28;20197;-73
2024/04/04 11:03:13;;;;;;;2.73;0.60;;;;;;;17.45;88.78;100317.22;5003723;28;20203;-73
2024/04/04 11:05:41;;;;;;;2.03;0.80;;;;;;;17.44;88.64;100318.38;5001935;28;20750;-73
2024/04/04 11:08:08;;;;;;;2.33;0.90;;;;;;;17.42;99.59;100313.41;4983671;28;20698;-74
2024/04/04 11:10:34;;;;;;;2.40;0.60;;;;;;;17.39;83.56;100313.38;5003098;28;20233;-74
2024/04/04 11:13:01;;;;;;;1.70;0.80;;;;;;;17.37;100.00;100321.75;5003087;28;20904;-74
2024/04/04 11:15:26;;;;;;;1.60;0.50;;;;;;;17.26;86.63;100314.81;5003707;28;20208;-73
2024/04/04 11:17:52;;;;;;;2.57;0.90;;;;;;;17.26;93.68;100318.28;5001870;28;20221;-73
2024/04/04 11:20:19;;;;;;;1.17;0.53;;;;;;;17.10;100.00;100333.84;5002350;28;20200;-73